sensor_id;sensor_type;location;lat;lon;timestamp;pressure;altitude;pressure_sealevel;temperature;humidity
77776;BME280;66965;43.328;6.668;2023-03-31T00:02:01;101844.69;;;12.98;78.64
77776;BME280;66965;43.328;6.668;2023-03-31T00:04:26;101845.72;;;12.89;78.62
77776;BME280;66965;43.328;6.668;2023-03-31T00:06:52;101842.28;;;12.84;79.18
77776;BME280;66965;43.328;6.668;2023-03-31T00:09:19;101837.16;;;12.75;78.97
77776;BME280;66965;43.328;6.668;2023-03-31T00:11:47;101827.44;;;12.79;79.65
77776;BME280;66965;43.328;6.668;2023-03-31T00:14:14;101831.91;;;12.75;79.12
77776;BME280;66965;43.328;6.668;2023-03-31T00:16:42;101832.81;;;12.71;79.06
77776;BME280;66965;43.328;6.668;2023-03-31T00:19:08;101835.47;;;12.70;79.33
77776;BME280;66965;43.328;6.668;2023-03-31T00:21:43;101835.47;;;12.68;79.82
77776;BME280;66965;43.328;6.668;2023-03-31T00:24:10;101819.69;;;12.70;79.40
77776;BME280;66965;43.328;6.668;2023-03-31T00:26:36;101808.38;;;12.63;79.71
77776;BME280;66965;43.328;6.668;2023-03-31T00:29:04;101804.91;;;12.60;79.52
77776;BME280;66965;43.328;6.668;2023-03-31T00:31:30;101798.88;;;12.53;79.78
77776;BME280;66965;43.328;6.668;2023-03-31T00:33:56;101815.41;;;12.63;80.12
77776;BME280;66965;43.328;6.668;2023-03-31T00:36:22;101803.28;;;12.53;80.34
77776;BME280;66965;43.328;6.668;2023-03-31T00:38:54;101788.41;;;12.50;80.76
77776;BME280;66965;43.328;6.668;2023-03-31T00:41:20;101776.94;;;12.56;80.81
77776;BME280;66965;43.328;6.668;2023-03-31T00:46:39;101749.06;;;12.42;80.79
77776;BME280;66965;43.328;6.668;2023-03-31T00:49:15;101752.56;;;12.41;80.81
77776;BME280;66965;43.328;6.668;2023-03-31T00:51:46;101755.28;;;12.37;80.40
77776;BME280;66965;43.328;6.668;2023-03-31T00:54:13;101765.00;;;12.30;80.75
77776;BME280;66965;43.328;6.668;2023-03-31T00:56:40;101769.03;;;12.54;80.36
77776;BME280;66965;43.328;6.668;2023-03-31T00:59:10;101757.56;;;12.61;80.73
77776;BME280;66965;43.328;6.668;2023-03-31T01:01:38;101750.53;;;12.62;80.63
77776;BME280;66965;43.328;6.668;2023-03-31T01:04:07;101738.28;;;12.61;80.43
77776;BME280;66965;43.328;6.668;2023-03-31T01:06:37;101743.44;;;12.67;80.51
77776;BME280;66965;43.328;6.668;2023-03-31T01:09:11;101739.06;;;12.66;80.46
77776;BME280;66965;43.328;6.668;2023-03-31T01:11:38;101740.56;;;12.82;80.76
77776;BME280;66965;43.328;6.668;2023-03-31T01:14:04;101730.78;;;12.91;80.74
77776;BME280;66965;43.328;6.668;2023-03-31T01:16:30;101731.53;;;12.98;80.61
77776;BME280;66965;43.328;6.668;2023-03-31T01:18:58;101751.75;;;12.97;80.79
77776;BME280;66965;43.328;6.668;2023-03-31T01:35:52;101718.91;;;13.20;79.99
77776;BME280;66965;43.328;6.668;2023-03-31T01:41:19;101714.06;;;12.94;80.54
77776;BME280;66965;43.328;6.668;2023-03-31T01:46:29;101714.94;;;12.93;80.98
77776;BME280;66965;43.328;6.668;2023-03-31T01:52:06;101718.63;;;12.83;81.49
77776;BME280;66965;43.328;6.668;2023-03-31T01:54:38;101731.63;;;12.95;81.41
77776;BME280;66965;43.328;6.668;2023-03-31T01:59:51;101731.47;;;13.01;81.55
77776;BME280;66965;43.328;6.668;2023-03-31T02:02:37;101724.41;;;13.07;81.36
77776;BME280;66965;43.328;6.668;2023-03-31T02:05:10;101722.66;;;13.05;81.46
77776;BME280;66965;43.328;6.668;2023-03-31T02:07:41;101716.56;;;13.03;80.65
77776;BME280;66965;43.328;6.668;2023-03-31T02:10:08;101731.13;;;12.70;80.35
77776;BME280;66965;43.328;6.668;2023-03-31T02:12:37;101716.72;;;12.37;80.61
77776;BME280;66965;43.328;6.668;2023-03-31T02:15:07;101713.53;;;12.14;80.96
77776;BME280;66965;43.328;6.668;2023-03-31T02:17:35;101709.91;;;12.23;81.61
77776;BME280;66965;43.328;6.668;2023-03-31T02:20:09;101705.47;;;12.26;81.53
77776;BME280;66965;43.328;6.668;2023-03-31T02:22:38;101700.53;;;12.02;80.87
77776;BME280;66965;43.328;6.668;2023-03-31T02:25:07;101708.97;;;11.54;81.78
77776;BME280;66965;43.328;6.668;2023-03-31T02:27:41;101698.63;;;11.42;82.46
77776;BME280;66965;43.328;6.668;2023-03-31T02:30:09;101695.97;;;11.45;83.36
77776;BME280;66965;43.328;6.668;2023-03-31T02:32:38;101694.13;;;11.53;83.70
77776;BME280;66965;43.328;6.668;2023-03-31T02:35:07;101692.16;;;11.74;83.87
77776;BME280;66965;43.328;6.668;2023-03-31T02:37:34;101688.44;;;11.89;83.58
77776;BME280;66965;43.328;6.668;2023-03-31T02:40:09;101677.97;;;11.86;82.85
77776;BME280;66965;43.328;6.668;2023-03-31T02:42:37;101669.63;;;12.19;83.12
77776;BME280;66965;43.328;6.668;2023-03-31T02:45:04;101669.44;;;12.34;82.52
77776;BME280;66965;43.328;6.668;2023-03-31T02:47:31;101658.72;;;12.46;81.68
77776;BME280;66965;43.328;6.668;2023-03-31T02:49:58;101661.34;;;12.46;81.84
77776;BME280;66965;43.328;6.668;2023-03-31T02:52:49;101663.25;;;12.37;81.73
77776;BME280;66965;43.328;6.668;2023-03-31T02:55:50;101662.38;;;12.35;81.59
77776;BME280;66965;43.328;6.668;2023-03-31T03:04:22;101644.72;;;12.44;81.49
77776;BME280;66965;43.328;6.668;2023-03-31T03:07:16;101651.91;;;12.33;81.33
77776;BME280;66965;43.328;6.668;2023-03-31T03:09:47;101650.19;;;12.31;81.09
77776;BME280;66965;43.328;6.668;2023-03-31T03:12:26;101654.59;;;12.30;81.89
77776;BME280;66965;43.328;6.668;2023-03-31T03:15:13;101651.78;;;12.41;81.64
77776;BME280;66965;43.328;6.668;2023-03-31T03:17:44;101638.63;;;12.42;81.56
77776;BME280;66965;43.328;6.668;2023-03-31T03:20:13;101629.00;;;12.43;81.90
77776;BME280;66965;43.328;6.668;2023-03-31T03:22:41;101618.63;;;12.32;81.70
77776;BME280;66965;43.328;6.668;2023-03-31T03:25:09;101628.13;;;12.42;81.92
77776;BME280;66965;43.328;6.668;2023-03-31T03:27:36;101619.13;;;12.54;81.79
77776;BME280;66965;43.328;6.668;2023-03-31T03:30:03;101606.91;;;12.52;81.41
77776;BME280;66965;43.328;6.668;2023-03-31T03:32:30;101596.44;;;12.50;81.33
77776;BME280;66965;43.328;6.668;2023-03-31T03:34:55;101599.00;;;12.53;81.68
77776;BME280;66965;43.328;6.668;2023-03-31T03:37:20;101588.41;;;12.59;81.72
77776;BME280;66965;43.328;6.668;2023-03-31T03:39:46;101573.34;;;12.66;81.26
77776;BME280;66965;43.328;6.668;2023-03-31T03:42:12;101569.94;;;12.61;81.24
77776;BME280;66965;43.328;6.668;2023-03-31T03:44:37;101569.97;;;12.59;81.04
77776;BME280;66965;43.328;6.668;2023-03-31T03:47:03;101566.63;;;12.51;81.27
77776;BME280;66965;43.328;6.668;2023-03-31T03:49:28;101564.97;;;12.45;80.54
77776;BME280;66965;43.328;6.668;2023-03-31T03:51:54;101543.09;;;12.42;81.19
77776;BME280;66965;43.328;6.668;2023-03-31T03:54:19;101546.59;;;12.42;81.28
77776;BME280;66965;43.328;6.668;2023-03-31T03:56:45;101528.09;;;12.48;81.57
77776;BME280;66965;43.328;6.668;2023-03-31T03:59:10;101528.09;;;12.47;81.33
77776;BME280;66965;43.328;6.668;2023-03-31T04:01:36;101530.78;;;12.45;81.09
77776;BME280;66965;43.328;6.668;2023-03-31T04:04:02;101537.81;;;12.43;80.75
77776;BME280;66965;43.328;6.668;2023-03-31T04:06:28;101542.31;;;12.35;80.49
77776;BME280;66965;43.328;6.668;2023-03-31T04:08:53;101545.03;;;12.31;81.47
77776;BME280;66965;43.328;6.668;2023-03-31T04:11:19;101557.25;;;12.33;81.79
77776;BME280;66965;43.328;6.668;2023-03-31T04:13:45;101564.03;;;12.46;81.48
77776;BME280;66965;43.328;6.668;2023-03-31T04:16:11;101563.75;;;12.63;80.73
77776;BME280;66965;43.328;6.668;2023-03-31T04:18:37;101554.78;;;12.75;80.14
77776;BME280;66965;43.328;6.668;2023-03-31T04:21:08;101563.44;;;12.81;80.36
77776;BME280;66965;43.328;6.668;2023-03-31T04:23:37;101558.81;;;12.94;79.78
77776;BME280;66965;43.328;6.668;2023-03-31T04:26:09;101549.00;;;13.00;79.96
77776;BME280;66965;43.328;6.668;2023-03-31T04:28:35;101533.25;;;12.99;79.70
77776;BME280;66965;43.328;6.668;2023-03-31T04:31:02;101510.44;;;12.99;79.40
77776;BME280;66965;43.328;6.668;2023-03-31T04:33:28;101509.63;;;12.96;79.98
77776;BME280;66965;43.328;6.668;2023-03-31T04:35:53;101506.50;;;12.77;79.93
77776;BME280;66965;43.328;6.668;2023-03-31T04:38:21;101509.22;;;12.73;80.37
77776;BME280;66965;43.328;6.668;2023-03-31T04:40:49;101498.72;;;12.71;80.79
77776;BME280;66965;43.328;6.668;2023-03-31T04:43:16;101500.56;;;12.66;80.63
77776;BME280;66965;43.328;6.668;2023-03-31T04:45:41;101514.66;;;12.64;81.11
77776;BME280;66965;43.328;6.668;2023-03-31T04:48:07;101525.19;;;12.64;80.63
77776;BME280;66965;43.328;6.668;2023-03-31T04:50:33;101527.75;;;12.67;81.07
77776;BME280;66965;43.328;6.668;2023-03-31T04:52:58;101530.44;;;12.64;81.10
77776;BME280;66965;43.328;6.668;2023-03-31T04:55:24;101534.88;;;12.62;81.56
77776;BME280;66965;43.328;6.668;2023-03-31T04:57:49;101521.47;;;12.75;81.30
77776;BME280;66965;43.328;6.668;2023-03-31T05:00:16;101523.22;;;12.73;81.11
77776;BME280;66965;43.328;6.668;2023-03-31T05:02:42;101525.13;;;12.65;81.39
77776;BME280;66965;43.328;6.668;2023-03-31T05:05:08;101521.06;;;12.49;81.29
77776;BME280;66965;43.328;6.668;2023-03-31T05:07:34;101523.63;;;12.54;81.66
77776;BME280;66965;43.328;6.668;2023-03-31T05:09:59;101512.13;;;12.59;82.03
77776;BME280;66965;43.328;6.668;2023-03-31T05:12:25;101504.06;;;12.67;82.31
77776;BME280;66965;43.328;6.668;2023-03-31T05:14:50;101507.66;;;12.63;82.03
77776;BME280;66965;43.328;6.668;2023-03-31T05:17:16;101518.34;;;12.54;81.58
77776;BME280;66965;43.328;6.668;2023-03-31T05:19:42;101521.09;;;12.47;81.87
77776;BME280;66965;43.328;6.668;2023-03-31T05:22:08;101516.72;;;12.46;81.88
77776;BME280;66965;43.328;6.668;2023-03-31T05:24:33;101519.53;;;12.37;81.39
77776;BME280;66965;43.328;6.668;2023-03-31T05:26:59;101524.38;;;12.10;82.22
77776;BME280;66965;43.328;6.668;2023-03-31T05:29:24;101523.41;;;12.15;82.96
77776;BME280;66965;43.328;6.668;2023-03-31T05:31:50;101512.56;;;12.33;82.67
77776;BME280;66965;43.328;6.668;2023-03-31T05:34:17;101501.84;;;12.45;82.42
77776;BME280;66965;43.328;6.668;2023-03-31T05:36:42;101500.09;;;12.44;82.48
77776;BME280;66965;43.328;6.668;2023-03-31T05:39:08;101513.88;;;12.59;81.62
77776;BME280;66965;43.328;6.668;2023-03-31T05:41:34;101524.31;;;12.63;81.60
77776;BME280;66965;43.328;6.668;2023-03-31T05:43:59;101525.13;;;12.67;81.64
77776;BME280;66965;43.328;6.668;2023-03-31T05:46:26;101517.84;;;12.81;81.73
77776;BME280;66965;43.328;6.668;2023-03-31T05:48:52;101519.34;;;12.92;81.39
77776;BME280;66965;43.328;6.668;2023-03-31T05:51:17;101515.53;;;13.10;81.22
77776;BME280;66965;43.328;6.668;2023-03-31T05:53:42;101519.03;;;13.09;80.38
77776;BME280;66965;43.328;6.668;2023-03-31T05:56:08;101519.03;;;13.11;80.25
77776;BME280;66965;43.328;6.668;2023-03-31T05:58:34;101533.78;;;13.18;80.07
77776;BME280;66965;43.328;6.668;2023-03-31T06:01:12;101536.38;;;13.21;79.96
77776;BME280;66965;43.328;6.668;2023-03-31T06:03:40;101524.78;;;13.29;80.19
77776;BME280;66965;43.328;6.668;2023-03-31T06:06:06;101531.44;;;13.45;80.02
77776;BME280;66965;43.328;6.668;2023-03-31T06:08:34;101523.53;;;13.47;79.69
77776;BME280;66965;43.328;6.668;2023-03-31T06:11:02;101513.63;;;13.56;79.34
77776;BME280;66965;43.328;6.668;2023-03-31T06:13:28;101522.34;;;13.60;78.69
77776;BME280;66965;43.328;6.668;2023-03-31T06:15:58;101537.41;;;13.55;78.53
77776;BME280;66965;43.328;6.668;2023-03-31T06:18:26;101539.97;;;13.56;78.90
77776;BME280;66965;43.328;6.668;2023-03-31T06:20:53;101544.59;;;13.47;78.65
77776;BME280;66965;43.328;6.668;2023-03-31T06:23:19;101543.50;;;13.94;78.21
77776;BME280;66965;43.328;6.668;2023-03-31T06:25:45;101534.63;;;13.98;77.24
77776;BME280;66965;43.328;6.668;2023-03-31T06:28:10;101537.91;;;14.07;77.24
77776;BME280;66965;43.328;6.668;2023-03-31T06:30:36;101534.19;;;14.16;77.02
77776;BME280;66965;43.328;6.668;2023-03-31T06:33:01;101527.81;;;14.26;76.71
77776;BME280;66965;43.328;6.668;2023-03-31T06:35:26;101510.09;;;14.31;76.34
77776;BME280;66965;43.328;6.668;2023-03-31T06:37:52;101507.22;;;14.40;76.58
77776;BME280;66965;43.328;6.668;2023-03-31T06:40:17;101498.25;;;14.47;75.76
77776;BME280;66965;43.328;6.668;2023-03-31T06:42:43;101508.84;;;14.46;75.23
77776;BME280;66965;43.328;6.668;2023-03-31T06:45:09;101513.28;;;14.44;75.06
77776;BME280;66965;43.328;6.668;2023-03-31T06:47:34;101515.44;;;14.28;75.16
77776;BME280;66965;43.328;6.668;2023-03-31T06:50:05;101521.22;;;14.44;75.10
77776;BME280;66965;43.328;6.668;2023-03-31T06:52:31;101533.16;;;14.57;74.72
77776;BME280;66965;43.328;6.668;2023-03-31T06:54:56;101531.94;;;14.70;74.48
77776;BME280;66965;43.328;6.668;2023-03-31T06:57:22;101531.03;;;14.71;74.24
77776;BME280;66965;43.328;6.668;2023-03-31T06:59:47;101530.56;;;14.88;74.29
77776;BME280;66965;43.328;6.668;2023-03-31T07:02:13;101532.88;;;15.00;73.44
77776;BME280;66965;43.328;6.668;2023-03-31T07:04:39;101522.22;;;15.03;72.87
77776;BME280;66965;43.328;6.668;2023-03-31T07:07:05;101520.34;;;15.08;72.84
77776;BME280;66965;43.328;6.668;2023-03-31T07:09:30;101515.41;;;15.25;72.50
77776;BME280;66965;43.328;6.668;2023-03-31T07:11:56;101516.38;;;15.22;71.80
77776;BME280;66965;43.328;6.668;2023-03-31T07:14:21;101508.31;;;15.27;71.43
77776;BME280;66965;43.328;6.668;2023-03-31T07:16:46;101512.50;;;15.34;71.11
77776;BME280;66965;43.328;6.668;2023-03-31T07:19:12;101536.28;;;15.03;70.76
77776;BME280;66965;43.328;6.668;2023-03-31T07:21:39;101547.38;;;14.85;71.58
77776;BME280;66965;43.328;6.668;2023-03-31T07:24:05;101533.72;;;15.02;72.13
77776;BME280;66965;43.328;6.668;2023-03-31T07:26:30;101531.47;;;15.17;71.69
77776;BME280;66965;43.328;6.668;2023-03-31T07:28:56;101528.91;;;15.16;71.60
77776;BME280;66965;43.328;6.668;2023-03-31T07:31:22;101525.22;;;15.21;71.36
77776;BME280;66965;43.328;6.668;2023-03-31T07:33:47;101534.28;;;15.13;71.47
77776;BME280;66965;43.328;6.668;2023-03-31T07:36:13;101533.56;;;15.37;71.35
77776;BME280;66965;43.328;6.668;2023-03-31T07:38:43;101528.09;;;15.43;70.71
77776;BME280;66965;43.328;6.668;2023-03-31T07:41:14;101510.69;;;15.36;70.51
77776;BME280;66965;43.328;6.668;2023-03-31T07:43:40;101517.47;;;15.44;70.63
77776;BME280;66965;43.328;6.668;2023-03-31T07:46:13;101529.94;;;15.10;71.05
77776;BME280;66965;43.328;6.668;2023-03-31T07:48:38;101528.25;;;15.08;71.67
77776;BME280;66965;43.328;6.668;2023-03-31T07:51:04;101531.88;;;15.34;71.48
77776;BME280;66965;43.328;6.668;2023-03-31T07:53:29;101528.50;;;15.29;70.56
77776;BME280;66965;43.328;6.668;2023-03-31T07:55:55;101528.44;;;15.31;70.74
77776;BME280;66965;43.328;6.668;2023-03-31T07:58:21;101527.53;;;15.32;70.85
77776;BME280;66965;43.328;6.668;2023-03-31T08:00:46;101534.69;;;15.28;70.90
77776;BME280;66965;43.328;6.668;2023-03-31T08:03:12;101536.34;;;15.32;71.11
77776;BME280;66965;43.328;6.668;2023-03-31T08:05:37;101537.09;;;15.36;70.41
77776;BME280;66965;43.328;6.668;2023-03-31T08:08:03;101511.47;;;15.39;70.69
77776;BME280;66965;43.328;6.668;2023-03-31T08:10:28;101519.44;;;15.38;70.64
77776;BME280;66965;43.328;6.668;2023-03-31T08:12:54;101510.03;;;15.28;69.88
77776;BME280;66965;43.328;6.668;2023-03-31T08:15:20;101511.59;;;15.35;70.34
77776;BME280;66965;43.328;6.668;2023-03-31T08:17:45;101523.31;;;15.26;70.73
77776;BME280;66965;43.328;6.668;2023-03-31T08:20:11;101518.91;;;15.27;70.47
77776;BME280;66965;43.328;6.668;2023-03-31T08:22:38;101523.84;;;15.37;70.59
77776;BME280;66965;43.328;6.668;2023-03-31T08:25:06;101527.00;;;15.21;70.78
77776;BME280;66965;43.328;6.668;2023-03-31T08:27:36;101528.03;;;15.15;70.52
77776;BME280;66965;43.328;6.668;2023-03-31T08:30:04;101528.81;;;15.19;70.54
77776;BME280;66965;43.328;6.668;2023-03-31T08:32:32;101520.50;;;15.32;70.81
77776;BME280;66965;43.328;6.668;2023-03-31T08:34:58;101536.03;;;15.41;70.10
77776;BME280;66965;43.328;6.668;2023-03-31T08:37:23;101540.28;;;15.49;69.51
77776;BME280;66965;43.328;6.668;2023-03-31T08:39:49;101537.59;;;15.50;69.54
77776;BME280;66965;43.328;6.668;2023-03-31T08:42:16;101537.56;;;15.79;68.62
77776;BME280;66965;43.328;6.668;2023-03-31T08:47:23;101530.03;;;16.21;66.13
77776;BME280;66965;43.328;6.668;2023-03-31T08:49:55;101547.84;;;16.16;66.46
77776;BME280;66965;43.328;6.668;2023-03-31T08:52:28;101530.28;;;16.40;64.81
77776;BME280;66965;43.328;6.668;2023-03-31T08:54:58;101533.25;;;16.57;63.45
77776;BME280;66965;43.328;6.668;2023-03-31T09:00:39;101499.66;;;16.59;62.42
77776;BME280;66965;43.328;6.668;2023-03-31T09:03:25;101510.09;;;16.88;61.52
77776;BME280;66965;43.328;6.668;2023-03-31T09:06:12;101495.75;;;17.17;60.12
77776;BME280;66965;43.328;6.668;2023-03-31T09:08:41;101481.22;;;17.27;60.27
77776;BME280;66965;43.328;6.668;2023-03-31T09:14:07;101454.31;;;17.61;58.88
77776;BME280;66965;43.328;6.668;2023-03-31T09:16:50;101442.34;;;17.72;58.60
77776;BME280;66965;43.328;6.668;2023-03-31T09:19:29;101432.66;;;18.13;57.02
77776;BME280;66965;43.328;6.668;2023-03-31T09:21:57;101421.00;;;18.58;56.10
77776;BME280;66965;43.328;6.668;2023-03-31T09:24:31;101407.81;;;18.93;54.80
77776;BME280;66965;43.328;6.668;2023-03-31T09:27:01;101409.69;;;19.83;52.79
77776;BME280;66965;43.328;6.668;2023-03-31T09:32:31;101414.59;;;18.42;55.59
77776;BME280;66965;43.328;6.668;2023-03-31T09:35:13;101410.25;;;19.35;54.09
77776;BME280;66965;43.328;6.668;2023-03-31T09:37:39;101416.88;;;19.27;53.35
77776;BME280;66965;43.328;6.668;2023-03-31T09:40:05;101409.00;;;20.48;51.00
77776;BME280;66965;43.328;6.668;2023-03-31T09:42:36;101402.28;;;21.22;49.58
77776;BME280;66965;43.328;6.668;2023-03-31T09:45:03;101400.28;;;20.45;50.41
77776;BME280;66965;43.328;6.668;2023-03-31T09:47:38;101399.53;;;21.69;47.41
77776;BME280;66965;43.328;6.668;2023-03-31T09:50:06;101392.75;;;22.09;45.83
77776;BME280;66965;43.328;6.668;2023-03-31T09:52:36;101397.53;;;21.43;47.09
77776;BME280;66965;43.328;6.668;2023-03-31T09:55:15;101393.44;;;21.67;47.33
77776;BME280;66965;43.328;6.668;2023-03-31T09:57:42;101388.50;;;21.75;47.00
77776;BME280;66965;43.328;6.668;2023-03-31T10:07:49;101371.03;;;21.85;47.26
77776;BME280;66965;43.328;6.668;2023-03-31T10:10:27;101382.97;;;21.49;47.99
77776;BME280;66965;43.328;6.668;2023-03-31T10:12:55;101383.94;;;21.32;47.95
77776;BME280;66965;43.328;6.668;2023-03-31T10:15:27;101370.63;;;21.62;47.55
77776;BME280;66965;43.328;6.668;2023-03-31T10:17:53;101366.94;;;20.86;49.07
77776;BME280;66965;43.328;6.668;2023-03-31T10:20:33;101358.03;;;21.03;48.02
77776;BME280;66965;43.328;6.668;2023-03-31T10:23:28;101352.81;;;20.68;49.76
77776;BME280;66965;43.328;6.668;2023-03-31T10:25:54;101342.44;;;20.31;52.42
77776;BME280;66965;43.328;6.668;2023-03-31T10:28:21;101336.72;;;19.17;56.23
77776;BME280;66965;43.328;6.668;2023-03-31T10:30:55;101331.03;;;19.25;55.99
77776;BME280;66965;43.328;6.668;2023-03-31T10:33:24;101332.56;;;19.65;54.19
77776;BME280;66965;43.328;6.668;2023-03-31T10:36:07;101329.28;;;19.60;54.25
77776;BME280;66965;43.328;6.668;2023-03-31T10:38:41;101320.72;;;19.89;54.86
77776;BME280;66965;43.328;6.668;2023-03-31T10:41:09;101315.19;;;19.92;54.98
77776;BME280;66965;43.328;6.668;2023-03-31T10:43:42;101301.41;;;18.78;57.62
77776;BME280;66965;43.328;6.668;2023-03-31T10:46:11;101307.09;;;18.31;60.72
77776;BME280;66965;43.328;6.668;2023-03-31T10:48:39;101307.94;;;18.13;61.54
77776;BME280;66965;43.328;6.668;2023-03-31T10:51:19;101307.94;;;18.13;61.97
77776;BME280;66965;43.328;6.668;2023-03-31T11:04:20;101265.47;;;18.13;64.02
77776;BME280;66965;43.328;6.668;2023-03-31T11:07:02;101269.03;;;17.53;66.86
77776;BME280;66965;43.328;6.668;2023-03-31T11:14:57;101253.53;;;19.15;61.75
77776;BME280;66965;43.328;6.668;2023-03-31T11:25:51;101218.00;;;20.96;53.26
77776;BME280;66965;43.328;6.668;2023-03-31T11:41:47;101182.84;;;18.94;59.09
77776;BME280;66965;43.328;6.668;2023-03-31T11:44:16;101174.38;;;18.86;59.42
77776;BME280;66965;43.328;6.668;2023-03-31T11:46:49;101166.34;;;18.87;59.37
77776;BME280;66965;43.328;6.668;2023-03-31T11:49:27;101163.16;;;18.98;57.85
77776;BME280;66965;43.328;6.668;2023-03-31T11:51:59;101158.94;;;19.28;57.12
77776;BME280;66965;43.328;6.668;2023-03-31T11:57:22;101153.31;;;19.00;58.70
77776;BME280;66965;43.328;6.668;2023-03-31T11:59:53;101144.88;;;18.92;59.32
77776;BME280;66965;43.328;6.668;2023-03-31T12:02:24;101141.34;;;19.43;58.62
77776;BME280;66965;43.328;6.668;2023-03-31T12:04:53;101128.94;;;19.09;58.57
77776;BME280;66965;43.328;6.668;2023-03-31T12:07:42;101119.09;;;19.61;56.89
77776;BME280;66965;43.328;6.668;2023-03-31T12:10:19;101113.09;;;19.58;57.24
77776;BME280;66965;43.328;6.668;2023-03-31T12:15:42;101097.19;;;21.11;51.55
77776;BME280;66965;43.328;6.668;2023-03-31T12:18:24;101105.69;;;21.46;50.15
77776;BME280;66965;43.328;6.668;2023-03-31T12:20:54;101075.00;;;21.67;48.56
77776;BME280;66965;43.328;6.668;2023-03-31T12:23:27;101082.53;;;22.56;40.01
77776;BME280;66965;43.328;6.668;2023-03-31T12:25:55;101068.31;;;23.58;38.05
77776;BME280;66965;43.328;6.668;2023-03-31T12:28:24;101063.94;;;22.94;36.73
77776;BME280;66965;43.328;6.668;2023-03-31T12:30:53;101078.16;;;23.07;37.32
77776;BME280;66965;43.328;6.668;2023-03-31T12:33:38;101073.47;;;23.11;37.14
77776;BME280;66965;43.328;6.668;2023-03-31T12:36:38;101068.47;;;23.93;35.40
77776;BME280;66965;43.328;6.668;2023-03-31T12:42:11;101047.47;;;25.05;32.87
77776;BME280;66965;43.328;6.668;2023-03-31T12:58:42;101012.09;;;24.31;32.96
77776;BME280;66965;43.328;6.668;2023-03-31T13:01:18;101003.50;;;24.49;32.49
77776;BME280;66965;43.328;6.668;2023-03-31T13:08:58;100984.50;;;24.98;31.60
77776;BME280;66965;43.328;6.668;2023-03-31T13:13:59;100964.38;;;24.93;31.62
77776;BME280;66965;43.328;6.668;2023-03-31T13:16:25;100958.53;;;24.42;32.05
77776;BME280;66965;43.328;6.668;2023-03-31T13:18:52;100960.69;;;24.26;32.18
77776;BME280;66965;43.328;6.668;2023-03-31T13:21:18;100959.81;;;23.78;33.53
77776;BME280;66965;43.328;6.668;2023-03-31T13:23:44;100956.78;;;24.06;32.05
77776;BME280;66965;43.328;6.668;2023-03-31T13:35:16;100933.91;;;23.42;32.76
77776;BME280;66965;43.328;6.668;2023-03-31T13:43:24;100915.81;;;22.71;33.92
77776;BME280;66965;43.328;6.668;2023-03-31T13:48:52;100907.28;;;23.15;33.22
77776;BME280;66965;43.328;6.668;2023-03-31T14:02:28;100889.00;;;23.09;31.77
77776;BME280;66965;43.328;6.668;2023-03-31T14:07:31;100878.78;;;22.90;31.99
77776;BME280;66965;43.328;6.668;2023-03-31T14:09:59;100864.25;;;22.94;32.18
77776;BME280;66965;43.328;6.668;2023-03-31T14:12:33;100871.81;;;23.37;32.30
77776;BME280;66965;43.328;6.668;2023-03-31T14:14:59;100864.56;;;23.39;30.08
77776;BME280;66965;43.328;6.668;2023-03-31T14:17:27;100870.78;;;24.22;28.67
77776;BME280;66965;43.328;6.668;2023-03-31T14:22:50;100840.03;;;23.69;28.28
77776;BME280;66965;43.328;6.668;2023-03-31T14:28:08;100857.13;;;23.19;30.44
77776;BME280;66965;43.328;6.668;2023-03-31T14:30:49;100854.44;;;23.19;30.33
77776;BME280;66965;43.328;6.668;2023-03-31T14:38:44;100857.91;;;23.32;27.77
77776;BME280;66965;43.328;6.668;2023-03-31T14:41:16;100855.72;;;22.89;29.13
77776;BME280;66965;43.328;6.668;2023-03-31T14:43:47;100854.22;;;22.73;28.63
77776;BME280;66965;43.328;6.668;2023-03-31T14:46:19;100847.81;;;22.75;28.82
77776;BME280;66965;43.328;6.668;2023-03-31T14:48:45;100856.03;;;22.72;29.13
77776;BME280;66965;43.328;6.668;2023-03-31T14:51:18;100836.22;;;23.00;28.31
77776;BME280;66965;43.328;6.668;2023-03-31T14:53:43;100850.59;;;23.70;27.38
77776;BME280;66965;43.328;6.668;2023-03-31T14:56:15;100834.06;;;23.05;28.36
77776;BME280;66965;43.328;6.668;2023-03-31T14:58:49;100837.94;;;22.88;28.85
77776;BME280;66965;43.328;6.668;2023-03-31T15:01:18;100830.38;;;25.13;25.93
77776;BME280;66965;43.328;6.668;2023-03-31T15:03:48;100828.22;;;25.50;26.01
77776;BME280;66965;43.328;6.668;2023-03-31T15:06:15;100823.53;;;24.54;27.68
77776;BME280;66965;43.328;6.668;2023-03-31T15:08:41;100811.44;;;22.85;30.12
77776;BME280;66965;43.328;6.668;2023-03-31T15:11:11;100813.84;;;23.96;28.74
77776;BME280;66965;43.328;6.668;2023-03-31T15:13:46;100814.44;;;22.68;30.63
77776;BME280;66965;43.328;6.668;2023-03-31T15:19:06;100807.22;;;23.54;29.47
77776;BME280;66965;43.328;6.668;2023-03-31T15:21:37;100797.13;;;23.34;29.84
77776;BME280;66965;43.328;6.668;2023-03-31T15:24:03;100814.19;;;23.20;30.26
77776;BME280;66965;43.328;6.668;2023-03-31T15:26:38;100806.81;;;22.87;30.73
77776;BME280;66965;43.328;6.668;2023-03-31T15:29:28;100798.91;;;23.81;29.41
77776;BME280;66965;43.328;6.668;2023-03-31T15:31:58;100806.97;;;24.49;28.09
77776;BME280;66965;43.328;6.668;2023-03-31T15:34:31;100803.19;;;24.96;27.28
77776;BME280;66965;43.328;6.668;2023-03-31T15:36:58;100804.16;;;24.95;27.49
77776;BME280;66965;43.328;6.668;2023-03-31T15:39:27;100796.88;;;24.97;27.32
77776;BME280;66965;43.328;6.668;2023-03-31T15:41:55;100811.22;;;24.51;27.61
77776;BME280;66965;43.328;6.668;2023-03-31T15:44:37;100809.03;;;24.23;28.32
77776;BME280;66965;43.328;6.668;2023-03-31T15:47:26;100801.13;;;23.87;29.07
77776;BME280;66965;43.328;6.668;2023-03-31T15:52:36;100781.66;;;23.85;28.61